Academy, South Dakota
Current Conditions -  °F | °C
As of 12:55 PM on Saturday 25 Oct 2014 (Local Time) from K9V9 Reporting Station
Clear Clear  
Wind Chill: 65°   Ceiling: Unl
Heat Index: 65°   Visibility: 10mi
Dew Point: 31°   Wind: 5mph
Humidity: 27%   Direction: 100°E
Pressure: 30.15"   Gusts: NA
Location:  43.4255°N, 98.9806°W
Report Text: K9V9 251755Z AUTO 10004KT 10SM CLR 18/M01 A3015 RMK AO2 T01841008 10184 20019
Loading
Personal Weather Stations






























Interactive Weather Map
Tropical Storm Tracking
New forecast layout! Learn more

10-Day Weather Forecast

Advertisements
Track Severe Weather on mobile